Search for airport 
image banner adimage banner adimage banner ad
image banner ad

22CA - Commodore Center

Located in Sausalito, United States

ICAO - 22CA, IATA -

Data provided by Airmate  

General information

Coordinates: N37°52'48" W122°30'49"
Elevation is feet MSL.
Magnetic variation is 16° East
View others Airports in California

Operational data

Special qualification required
Current time UTC:
Current local time:
Weather at : KDVO - Gnoss Field ( 30 km )
METAR: KDVO 150835Z AUTO 05004KT 10SM CLR 13/10 A3007 RMK AO2
View NOTAMs / SUP AIP / TFR affecting this airport [VIEW]
Communications frequencies: [VIEW]

Runways:

RWY identifierQFULength (ft)Width (ft)SurfaceLDA (ft)
11W100002400WATER
29W100002400WATER

Airport contact information

Address: Sausalito United States

Satellite view of 22CA